CheckWX is a tool to help pilots better visualize weather data.  It is not intended as a substitute for an official pre-flight weather briefing.

17:31:41 UTC

EHVL METAR
Vlieland Heliport
Vlieland, The Netherlands
Current

37 mins ago

EHVL 241655Z AUTO 27019KT 9999 NCD 07/04 Q1024 BLU
Observed
Mar-24 @ 16:55 UTC
Wind
  • 270° at 19 KTS
Visibility
10,000+ meters
Flight Rules
VFR
Cloud Levels
  • Clear skies
Temperature
C / 45°F
Dewpoint
C / 39°F
Humidity
81%
Altimeter
30.24" Hg
Pressure
1023.92 hPa
Previous

1 hour ago

EHVL 241625Z AUTO 27019KT 9999 NCD 08/04 Q1025 BLU
Observed
Mar-24 @ 16:25 UTC
Wind
  • 270° at 19 KTS
Visibility
10,000+ meters
Flight Rules
VFR
Cloud Levels
  • Clear skies
Temperature
C / 46°F
Dewpoint
C / 39°F
Humidity
76%
Altimeter
30.27" Hg
Pressure
1024.92 hPa
Previous

2 hours ago

EHVL 241555Z AUTO 27018KT 9999 NCD 08/04 Q1025 BLU
Observed
Mar-24 @ 15:55 UTC
Wind
  • 270° at 18 KTS
Visibility
10,000+ meters
Flight Rules
VFR
Cloud Levels
  • Clear skies
Temperature
C / 46°F
Dewpoint
C / 39°F
Humidity
76%
Altimeter
30.27" Hg
Pressure
1024.92 hPa